Time;durP1;ratioP1;P1;durP2;ratioP2;P2;SDS_P1;SDS_P2;PMS_P1;PMS_P2;Temp;Humidity;BMP_temperature;BMP_pressure;BME280_temperature;BME280_humidity;BME280_pressure;Samples;Min_cycle;Max_cycle;Signal;HPM_P1;HPM_P2
2021/11/17 02:26:50;;;;;;;6.43;5.60;;;8.90;99.90;;;;;;4976513;28;20855;-58
2021/11/17 02:29:38;;;;;;;6.50;5.90;;;8.90;99.90;;;;;;4976494;28;20471;-56
2021/11/17 02:32:15;;;;;;;6.33;5.50;;;8.80;99.90;;;;;;4979717;28;20419;-56
2021/11/17 02:34:59;;;;;;;6.70;5.40;;;8.80;99.90;;;;;;4995946;28;20417;-57
2021/11/17 02:37:36;;;;;;;7.17;6.20;;;8.80;99.90;;;;;;4995784;28;20386;-56
2021/11/17 02:40:33;;;;;;;6.57;5.93;;;8.70;99.90;;;;;;4995554;28;20874;-54
2021/11/17 02:43:29;;;;;;;8.47;6.20;;;8.80;99.90;;;;;;4996131;28;20400;-58
2021/11/17 02:46:19;;;;;;;9.90;6.73;;;8.50;99.90;;;;;;4996096;28;20460;-58
2021/11/17 02:49:07;;;;;;;7.87;5.73;;;8.60;99.90;;;;;;4995526;28;20422;-57
2021/11/17 02:51:39;;;;;;;8.17;7.30;;;8.50;99.90;;;;;;4995300;28;20518;-56
2021/11/17 02:54:26;;;;;;;7.10;6.40;;;8.20;99.90;;;;;;4995665;28;20389;-56
2021/11/17 02:56:57;;;;;;;8.47;6.13;;;8.30;99.90;;;;;;4996002;28;20397;-57
2021/11/17 02:59:41;;;;;;;9.90;7.07;;;8.40;99.90;;;;;;4995541;28;20481;-57
2021/11/17 03:02:28;;;;;;;7.37;6.50;;;8.50;99.90;;;;;;4995285;28;20461;-56
2021/11/17 03:05:11;;;;;;;10.13;7.60;;;8.40;99.90;;;;;;4995246;28;20902;-57
2021/11/17 03:07:56;;;;;;;8.10;7.10;;;8.40;99.90;;;;;;4994986;28;20437;-58
2021/11/17 03:11:09;;;;;;;7.93;6.87;;;8.50;99.90;;;;;;4994599;28;20450;-55
2021/11/17 03:13:47;;;;;;;9.73;7.40;;;8.60;99.90;;;;;;4968981;28;20403;-57
2021/11/17 03:16:25;;;;;;;10.60;8.50;;;8.70;99.90;;;;;;4994659;28;20443;-57
2021/11/17 03:18:53;;;;;;;9.10;6.70;;;8.60;99.90;;;;;;4995242;28;20512;-55
2021/11/17 03:21:34;;;;;;;8.57;7.10;;;8.30;99.90;;;;;;4994729;28;20431;-57
2021/11/17 03:24:09;;;;;;;10.13;7.47;;;8.40;99.90;;;;;;4994890;28;20386;-57
2021/11/17 03:26:59;;;;;;;8.73;7.37;;;8.50;99.90;;;;;;4994880;28;20477;-58
2021/11/17 03:29:51;;;;;;;6.90;6.20;;;8.50;99.90;;;;;;4994830;28;20410;-59
2021/11/17 03:32:34;;;;;;;9.10;7.50;;;8.60;99.90;;;;;;4994899;28;20393;-58
2021/11/17 03:35:06;;;;;;;10.10;7.47;;;8.60;99.90;;;;;;4994644;28;20395;-57
2021/11/17 03:37:34;;;;;;;6.70;6.00;;;8.60;99.90;;;;;;4993178;28;20565;-57
2021/11/17 03:40:27;;;;;;;7.67;6.87;;;8.60;99.90;;;;;;4994301;28;20446;-58
2021/11/17 03:42:56;;;;;;;8.13;6.20;;;8.50;99.90;;;;;;4994832;28;20886;-58
2021/11/17 03:45:42;;;;;;;8.50;6.43;;;8.50;99.90;;;;;;4994444;28;20489;-58
2021/11/17 03:48:20;;;;;;;8.07;6.60;;;8.60;99.90;;;;;;4994329;28;20427;-58
2021/11/17 03:50:52;;;;;;;8.83;6.57;;;8.60;99.90;;;;;;4991178;28;20399;-58
2021/11/17 03:53:50;;;;;;;8.10;7.30;;;8.50;99.90;;;;;;4994543;28;20426;-57
2021/11/17 03:56:34;;;;;;;9.30;7.03;;;8.50;99.90;;;;;;4993532;28;20412;-59
2021/11/17 03:59:11;;;;;;;7.03;6.00;;;8.50;99.90;;;;;;4994454;28;20438;-58
2021/11/17 04:01:49;;;;;;;7.47;6.70;;;8.50;99.90;;;;;;4994531;28;20392;-59
2021/11/17 04:04:14;;;;;;;9.17;6.57;;;8.50;99.90;;;;;;4994474;28;20392;-59
2021/11/17 04:06:58;;;;;;;7.77;6.10;;;8.50;99.90;;;;;;4993822;28;20878;-58
2021/11/17 04:09:47;;;;;;;8.63;6.47;;;8.60;99.90;;;;;;4993583;28;20696;-58
2021/11/17 04:12:47;;;;;;;9.27;7.40;;;8.50;99.90;;;;;;4993657;28;20408;-57
2021/11/17 04:15:41;;;;;;;8.47;6.67;;;8.60;99.90;;;;;;4970091;28;20468;-58
2021/11/17 04:18:18;;;;;;;7.90;6.20;;;8.70;99.90;;;;;;4994113;28;20489;-58
2021/11/17 04:21:07;;;;;;;8.43;7.13;;;8.50;99.90;;;;;;4993878;28;20523;-58
2021/11/17 04:23:51;;;;;;;7.57;6.10;;;8.50;99.90;;;;;;4983289;28;20427;-57
2021/11/17 04:26:57;;;;;;;7.40;6.57;;;8.60;99.90;;;;;;4993417;28;20453;-58
2021/11/17 04:29:29;;;;;;;7.17;6.00;;;8.70;99.90;;;;;;4933705;29;20498;-58
2021/11/17 04:32:26;;;;;;;8.90;6.80;;;8.60;99.90;;;;;;4983587;28;20424;-58
2021/11/17 04:35:11;;;;;;;12.60;7.33;;;8.60;99.90;;;;;;4992533;28;20822;-56
2021/11/17 04:37:55;;;;;;;9.80;6.57;;;8.60;99.90;;;;;;4993530;28;20406;-56
2021/11/17 04:40:40;;;;;;;9.77;7.57;;;8.60;99.90;;;;;;4993301;28;20433;-56
2021/11/17 04:43:26;;;;;;;7.70;6.80;;;8.60;99.90;;;;;;4993983;28;20514;-57
2021/11/17 04:46:08;;;;;;;7.50;6.30;;;8.70;99.90;;;;;;4993854;28;20485;-58
2021/11/17 04:48:49;;;;;;;9.33;6.80;;;8.70;99.90;;;;;;4993781;28;20419;-58
2021/11/17 04:51:14;;;;;;;12.33;7.33;;;8.70;99.90;;;;;;4993360;28;20900;-57
2021/11/17 04:53:52;;;;;;;8.50;7.03;;;8.60;99.90;;;;;;4993461;28;20579;-55
2021/11/17 04:56:27;;;;;;;8.00;6.97;;;8.50;99.90;;;;;;4993257;28;20170;-58
2021/11/17 04:59:03;;;;;;;7.63;6.70;;;8.60;99.90;;;;;;4993615;28;20524;-57
2021/11/17 05:01:34;;;;;;;7.37;6.43;;;8.70;99.90;;;;;;4993353;28;20388;-58
2021/11/17 05:04:20;;;;;;;8.63;7.23;;;8.60;99.90;;;;;;4975915;28;20489;-56
2021/11/17 05:06:51;;;;;;;8.33;6.53;;;8.60;99.90;;;;;;4993353;28;20442;-57
2021/11/17 05:09:45;;;;;;;8.07;6.13;;;8.70;99.90;;;;;;4992931;28;20460;-57
2021/11/17 05:12:40;;;;;;;6.93;5.20;;;8.80;99.90;;;;;;4993734;28;20390;-58
2021/11/17 05:15:21;;;;;;;6.87;6.00;;;8.90;99.90;;;;;;4993504;28;20392;-56
2021/11/17 05:17:52;;;;;;;7.90;6.67;;;8.70;99.90;;;;;;4993583;28;20383;-55
2021/11/17 05:20:36;;;;;;;9.33;7.17;;;8.70;99.90;;;;;;4993266;28;20423;-55
2021/11/17 05:23:14;;;;;;;7.90;6.40;;;8.70;99.90;;;;;;4993146;28;20401;-53
2021/11/17 05:25:54;;;;;;;7.13;5.47;;;8.60;99.90;;;;;;4989622;28;20454;-58
2021/11/17 05:28:57;;;;;;;6.40;5.80;;;8.60;99.90;;;;;;4993226;28;20413;-58
2021/11/17 05:31:29;;;;;;;9.40;6.33;;;8.70;99.90;;;;;;4994110;28;20445;-60
2021/11/17 05:34:03;;;;;;;6.47;5.80;;;8.60;99.90;;;;;;4991985;28;20404;-60
2021/11/17 05:36:45;;;;;;;6.33;5.60;;;8.60;99.90;;;;;;4993253;28;20397;-57
2021/11/17 05:39:10;;;;;;;6.73;6.00;;;8.60;99.90;;;;;;4995148;28;20493;-60
2021/11/17 05:42:11;;;;;;;8.20;5.60;;;8.70;99.90;;;;;;4996501;28;20419;-58
2021/11/17 05:45:01;;;;;;;6.47;5.33;;;8.80;99.90;;;;;;4946233;28;20199;-58
2021/11/17 05:47:36;;;;;;;8.37;6.80;;;8.70;99.90;;;;;;4996970;28;20440;-60
2021/11/17 05:50:11;;;;;;;7.50;6.70;;;8.60;99.90;;;;;;4996701;28;20458;-60
2021/11/17 05:52:42;;;;;;;7.70;6.73;;;8.70;99.90;;;;;;4995267;28;20406;-57
2021/11/17 05:55:25;;;;;;;8.10;6.70;;;8.70;99.90;;;;;;4996501;28;20426;-57
2021/11/17 05:58:42;;;;;;;7.20;6.17;;;8.60;99.90;;;;;;4996670;28;20899;-58
2021/11/17 06:01:10;;;;;;;9.57;7.27;;;8.70;99.90;;;;;;4963272;28;20432;-57
2021/11/17 06:03:58;;;;;;;7.23;6.30;;;8.60;99.90;;;;;;4996245;28;20931;-59
2021/11/17 06:06:24;;;;;;;9.40;7.43;;;8.50;99.90;;;;;;4996254;28;20434;-57
2021/11/17 06:08:58;;;;;;;8.20;5.87;;;8.40;99.90;;;;;;4995907;28;20548;-56
2021/11/17 06:11:51;;;;;;;7.70;6.43;;;8.40;99.90;;;;;;5027401;22;20225;-60
2021/11/17 06:14:24;;;;;;;7.50;6.13;;;8.30;99.90;;;;;;5012531;28;20790;-60
2021/11/17 06:16:53;;;;;;;9.37;6.60;;;8.20;99.90;;;;;;5016554;28;20878;-60
2021/11/17 06:19:23;;;;;;;8.33;6.43;;;8.10;99.90;;;;;;5016124;28;20407;-60
2021/11/17 06:21:51;;;;;;;8.20;6.40;;;8.00;99.90;;;;;;4996484;28;20473;-60
2021/11/17 06:24:20;;;;;;;9.80;6.37;;;8.10;99.90;;;;;;4996613;28;20498;-60
2021/11/17 06:26:47;;;;;;;6.40;5.40;;;7.90;99.90;;;;;;4996069;28;20473;-61
2021/11/17 06:29:31;;;;;;;8.80;6.80;;;8.00;99.90;;;;;;4996217;28;20402;-60
2021/11/17 06:31:59;;;;;;;8.87;7.20;;;8.00;99.90;;;;;;4996038;28;20482;-60
2021/11/17 06:34:33;;;;;;;7.80;6.00;;;8.00;99.90;;;;;;4996247;28;20413;-61
2021/11/17 06:37:02;;;;;;;8.53;6.90;;;8.10;99.90;;;;;;4995967;28;20460;-61
2021/11/17 06:39:28;;;;;;;10.60;6.90;;;8.10;99.90;;;;;;4995585;28;20492;-57
2021/11/17 06:41:54;;;;;;;8.57;5.20;;;8.00;99.90;;;;;;4995761;28;20862;-60
2021/11/17 06:44:23;;;;;;;7.00;6.30;;;7.90;99.90;;;;;;4996266;28;20409;-59
2021/11/17 06:46:49;;;;;;;8.77;6.10;;;8.00;99.90;;;;;;4996019;28;20455;-60
2021/11/17 06:49:15;;;;;;;8.40;5.87;;;7.90;99.90;;;;;;4995313;28;20918;-61
2021/11/17 06:51:40;;;;;;;7.83;6.10;;;7.90;99.90;;;;;;4995247;28;20465;-60
2021/11/17 06:54:06;;;;;;;7.17;6.47;;;8.00;99.90;;;;;;4995834;28;20177;-60
2021/11/17 06:56:32;;;;;;;7.73;5.63;;;8.00;99.90;;;;;;4995374;28;20179;-59
2021/11/17 06:58:58;;;;;;;9.67;5.50;;;8.00;99.90;;;;;;4995565;28;20497;-60
2021/11/17 07:01:24;;;;;;;7.73;5.53;;;7.80;99.90;;;;;;4995765;28;20193;-61
2021/11/17 07:03:50;;;;;;;9.20;5.77;;;8.00;99.90;;;;;;4995570;28;20598;-60
2021/11/17 07:06:15;;;;;;;7.80;5.30;;;7.90;99.90;;;;;;4995636;28;20477;-60
2021/11/17 07:08:41;;;;;;;7.77;5.70;;;8.10;99.90;;;;;;4995365;28;20172;-61
2021/11/17 07:11:10;;;;;;;9.37;6.90;;;8.10;99.90;;;;;;5007373;28;20749;-58
2021/11/17 07:13:36;;;;;;;10.00;6.93;;;8.00;99.90;;;;;;5015141;28;20173;-59
2021/11/17 07:16:03;;;;;;;8.77;6.30;;;8.20;99.90;;;;;;5014937;28;20405;-61
2021/11/17 07:18:29;;;;;;;8.27;6.40;;;8.00;99.90;;;;;;5015474;28;20169;-59
2021/11/17 07:20:55;;;;;;;9.03;6.23;;;8.20;99.90;;;;;;4997871;28;20457;-60
2021/11/17 07:23:22;;;;;;;8.33;5.67;;;8.20;99.90;;;;;;4995002;28;20407;-59
2021/11/17 07:25:47;;;;;;;6.77;5.40;;;8.10;99.90;;;;;;4994486;28;20409;-61
2021/11/17 07:28:13;;;;;;;8.03;5.77;;;8.10;99.90;;;;;;4994885;28;20421;-60
2021/11/17 07:30:40;;;;;;;5.30;4.77;;;8.30;99.90;;;;;;4995245;28;20191;-61
2021/11/17 07:33:07;;;;;;;7.37;6.00;;;8.40;99.90;;;;;;4995152;28;20175;-59
2021/11/17 07:35:38;;;;;;;6.43;5.80;;;8.50;99.90;;;;;;4995140;28;20465;-61
2021/11/17 07:38:07;;;;;;;8.03;6.23;;;8.60;99.90;;;;;;4994671;28;20603;-61
2021/11/17 07:40:37;;;;;;;9.50;7.20;;;8.30;99.90;;;;;;4994333;28;20441;-60
2021/11/17 07:43:05;;;;;;;7.53;6.43;;;8.50;99.90;;;;;;4994662;28;20410;-60
2021/11/17 07:45:32;;;;;;;8.80;6.53;;;8.40;99.90;;;;;;4994844;28;20500;-59
2021/11/17 07:47:58;;;;;;;6.90;6.17;;;8.20;99.90;;;;;;4994765;28;20507;-59
2021/11/17 07:50:24;;;;;;;7.20;6.40;;;8.00;99.90;;;;;;4994733;28;20795;-59
2021/11/17 07:52:50;;;;;;;7.80;6.90;;;8.20;99.90;;;;;;4986839;28;20427;-60
2021/11/17 07:55:17;;;;;;;7.60;6.17;;;8.40;99.90;;;;;;4974963;28;20703;-60
2021/11/17 07:57:45;;;;;;;11.20;8.00;;;8.50;99.90;;;;;;4975520;28;20532;-59
2021/11/17 08:00:23;;;;;;;8.00;7.00;;;8.40;99.90;;;;;;4974966;28;20439;-56
2021/11/17 08:02:51;;;;;;;9.30;6.70;;;8.30;99.90;;;;;;4974888;28;20392;-60
2021/11/17 08:05:18;;;;;;;10.00;7.87;;;8.20;99.90;;;;;;4975034;28;20555;-59
2021/11/17 08:07:44;;;;;;;11.80;7.17;;;8.30;99.90;;;;;;4974929;28;20951;-59
2021/11/17 08:10:21;;;;;;;7.07;6.00;;;8.20;99.90;;;;;;4986246;28;20460;-58
2021/11/17 08:12:47;;;;;;;7.50;5.67;;;8.30;99.90;;;;;;5014725;28;20424;-60
2021/11/17 08:15:14;;;;;;;7.10;5.30;;;8.40;99.90;;;;;;5014531;28;20410;-61
2021/11/17 08:17:40;;;;;;;7.83;5.33;;;8.40;99.90;;;;;;5004678;28;20426;-61
2021/11/17 08:20:15;;;;;;;8.40;6.07;;;8.50;99.90;;;;;;4991378;28;20433;-61
2021/11/17 08:22:43;;;;;;;7.83;6.00;;;8.50;99.90;;;;;;5004894;28;20413;-60
2021/11/17 08:25:10;;;;;;;8.80;6.00;;;8.60;99.90;;;;;;4995798;28;20410;-59
2021/11/17 08:27:36;;;;;;;7.60;6.27;;;8.80;99.90;;;;;;4993734;28;20451;-60
2021/11/17 08:30:03;;;;;;;9.33;6.27;;;8.60;99.90;;;;;;4994074;28;20433;-61
2021/11/17 08:32:29;;;;;;;5.13;4.43;;;8.70;99.90;;;;;;4994043;28;20415;-60
2021/11/17 08:34:55;;;;;;;5.10;4.40;;;8.70;99.90;;;;;;4993511;28;20403;-61
2021/11/17 08:37:21;;;;;;;6.40;4.70;;;8.70;99.90;;;;;;4993642;28;20169;-58
2021/11/17 08:39:50;;;;;;;6.27;4.57;;;8.70;99.90;;;;;;4993701;28;20200;-60
2021/11/17 08:42:16;;;;;;;8.90;4.73;;;8.80;99.90;;;;;;4993834;28;20415;-57
2021/11/17 08:44:43;;;;;;;5.63;4.80;;;8.80;99.90;;;;;;4994002;28;20411;-61
2021/11/17 08:47:12;;;;;;;7.70;5.30;;;8.80;99.90;;;;;;4993901;28;20465;-62
2021/11/17 08:49:38;;;;;;;5.27;3.97;;;9.00;99.90;;;;;;4993669;28;20407;-61
2021/11/17 08:52:07;;;;;;;5.73;3.30;;;8.70;99.90;;;;;;4993607;28;20426;-62
2021/11/17 08:54:34;;;;;;;3.73;3.30;;;8.40;99.90;;;;;;4993937;28;20405;-61
2021/11/17 08:57:00;;;;;;;5.33;3.80;;;8.50;99.90;;;;;;4993668;28;20414;-58
2021/11/17 08:59:27;;;;;;;4.53;3.70;;;8.20;99.90;;;;;;4993661;28;20904;-60
2021/11/17 09:01:56;;;;;;;4.90;3.73;;;8.40;99.90;;;;;;4993787;28;20407;-61
2021/11/17 09:04:23;;;;;;;6.50;4.13;;;8.40;99.90;;;;;;4993847;28;20419;-61
2021/11/17 09:06:48;;;;;;;5.50;4.37;;;8.40;99.90;;;;;;4993734;28;20960;-61
2021/11/17 09:09:15;;;;;;;4.93;4.07;;;8.40;99.90;;;;;;4993651;28;20427;-59
2021/11/17 09:11:41;;;;;;;6.13;3.37;;;8.30;99.90;;;;;;5011553;28;20217;-60
2021/11/17 09:14:07;;;;;;;3.83;3.40;;;8.30;99.90;;;;;;4996011;28;20887;-60
2021/11/17 09:16:34;;;;;;;3.50;3.20;;;8.10;99.90;;;;;;4997820;28;20176;-60
2021/11/17 09:19:03;;;;;;;6.60;3.10;;;8.00;99.90;;;;;;4997452;28;20433;-60
2021/11/17 09:21:32;;;;;;;3.70;3.30;;;7.80;99.90;;;;;;4996366;28;20447;-60
2021/11/17 09:23:59;;;;;;;3.77;3.37;;;7.80;99.90;;;;;;4997759;28;20406;-62
2021/11/17 09:26:24;;;;;;;2.83;2.50;;;7.70;99.90;;;;;;4997354;28;20816;-61
2021/11/17 09:28:56;;;;;;;5.50;2.93;;;7.70;99.90;;;;;;4997475;28;20412;-59
2021/11/17 09:31:22;;;;;;;4.03;3.07;;;7.70;99.90;;;;;;4997288;28;20187;-61
2021/11/17 09:33:48;;;;;;;3.40;3.13;;;7.70;99.90;;;;;;4997588;28;20414;-60
2021/11/17 09:36:19;;;;;;;4.40;3.13;;;7.80;99.90;;;;;;4997601;28;20418;-61
2021/11/17 09:38:50;;;;;;;3.80;3.33;;;7.90;99.90;;;;;;4997242;28;20377;-62
2021/11/17 09:41:16;;;;;;;3.50;2.70;;;8.00;99.90;;;;;;4996960;28;20442;-61
2021/11/17 09:43:49;;;;;;;4.33;3.10;;;8.10;99.90;;;;;;4997314;28;20500;-59
2021/11/17 09:46:19;;;;;;;3.67;2.90;;;7.80;99.90;;;;;;4998037;28;20512;-59
2021/11/17 09:49:13;;;;;;;3.03;2.73;;;7.80;99.90;;;;;;4997462;28;20392;-58
2021/11/17 09:51:50;;;;;;;3.17;2.70;;;7.90;99.90;;;;;;5007034;28;20441;-61
2021/11/17 09:54:36;;;;;;;3.10;2.60;;;8.10;99.90;;;;;;4984466;28;20483;-61
2021/11/17 09:57:06;;;;;;;3.30;2.50;;;7.90;99.90;;;;;;4977478;28;20402;-61
2021/11/17 09:59:46;;;;;;;4.43;3.00;;;8.00;99.90;;;;;;4977660;28;20487;-61
2021/11/17 10:02:37;;;;;;;3.17;2.77;;;8.10;99.90;;;;;;4977582;28;20487;-60
2021/11/17 10:05:47;;;;;;;2.60;2.37;;;8.10;99.90;;;;;;4976156;28;20415;-59
2021/11/17 10:13:57;;;;;;;2.83;2.60;;;7.90;99.90;;;;;;5001478;28;20448;-59
2021/11/17 10:16:24;;;;;;;3.70;2.30;;;8.10;99.90;;;;;;4996682;28;20743;-60
2021/11/17 10:19:15;;;;;;;2.73;2.13;;;8.20;99.90;;;;;;4996700;28;20402;-61
2021/11/17 10:21:42;;;;;;;3.90;2.27;;;8.10;99.90;;;;;;4996394;28;20436;-60
2021/11/17 10:24:18;;;;;;;2.50;2.17;;;8.20;99.90;;;;;;4996046;28;20418;-61
2021/11/17 10:27:01;;;;;;;8.13;2.90;;;8.10;99.90;;;;;;4996350;28;20858;-60
2021/11/17 10:29:35;;;;;;;3.73;2.57;;;8.20;99.90;;;;;;4996706;28;20482;-61
2021/11/17 10:32:04;;;;;;;2.33;2.13;;;8.20;99.90;;;;;;4996759;28;20390;-61
2021/11/17 10:34:39;;;;;;;2.67;2.23;;;8.30;99.90;;;;;;4996585;28;20409;-60
2021/11/17 10:37:08;;;;;;;2.30;2.10;;;8.10;99.90;;;;;;4996208;28;20406;-61
2021/11/17 10:39:39;;;;;;;2.07;1.80;;;8.20;99.90;;;;;;4995991;28;20468;-61
2021/11/17 10:42:07;;;;;;;2.67;2.47;;;8.30;99.90;;;;;;4996069;28;20492;-60
2021/11/17 10:44:42;;;;;;;2.37;2.10;;;8.40;99.90;;;;;;4996101;28;20411;-60
2021/11/17 10:47:45;;;;;;;3.07;2.00;;;8.50;99.90;;;;;;4996403;28;20446;-61
2021/11/17 10:50:22;;;;;;;2.00;1.80;;;8.20;99.90;;;;;;4993461;28;20478;-61
2021/11/17 10:52:55;;;;;;;3.00;1.80;;;8.50;99.90;;;;;;4995877;28;20466;-61
2021/11/17 10:55:54;;;;;;;1.73;1.43;;;8.50;99.90;;;;;;4995988;28;20813;-61
2021/11/17 10:58:29;;;;;;;1.80;1.67;;;8.60;99.90;;;;;;4979158;28;20455;-59
2021/11/17 11:01:15;;;;;;;2.10;1.90;;;8.70;99.90;;;;;;4996051;28;21012;-60
2021/11/17 11:03:51;;;;;;;5.50;3.60;;;8.70;99.90;;;;;;4996174;28;20830;-59
2021/11/17 11:06:24;;;;;;;2.70;1.63;;;9.00;99.90;;;;;;4996139;28;20944;-60
2021/11/17 11:09:05;;;;;;;3.07;1.67;;;9.10;99.90;;;;;;4995536;28;20492;-60
2021/11/17 11:11:35;;;;;;;2.13;1.87;;;9.10;99.90;;;;;;4991527;28;20967;-61
2021/11/17 11:14:09;;;;;;;2.03;1.70;;;9.10;99.90;;;;;;4995748;28;20496;-61
2021/11/17 11:16:42;;;;;;;1.70;1.60;;;8.90;99.90;;;;;;4995691;28;20411;-59
2021/11/17 11:19:12;;;;;;;2.20;1.20;;;9.00;99.90;;;;;;4995975;28;20416;-60
2021/11/17 11:21:43;;;;;;;1.67;1.20;;;9.00;99.90;;;;;;4995462;28;20489;-60
2021/11/17 11:24:24;;;;;;;1.83;1.53;;;8.90;99.90;;;;;;4995159;28;20444;-61
2021/11/17 11:26:59;;;;;;;2.80;1.80;;;8.90;99.90;;;;;;4994870;28;20447;-60
2021/11/17 11:30:03;;;;;;;1.90;1.70;;;8.80;99.90;;;;;;4995061;28;20415;-57
2021/11/17 11:32:28;;;;;;;1.37;1.27;;;8.90;99.90;;;;;;4995557;28;20397;-60
2021/11/17 11:35:00;;;;;;;1.53;1.40;;;8.60;99.90;;;;;;4995755;28;20841;-60
2021/11/17 11:37:25;;;;;;;1.83;1.60;;;8.80;99.90;;;;;;4994290;28;20773;-55
2021/11/17 11:39:56;;;;;;;3.00;1.83;;;8.80;99.90;;;;;;4998287;28;20457;-60
2021/11/17 11:42:40;;;;;;;2.33;1.80;;;8.90;99.90;;;;;;5014703;28;20164;-58
2021/11/17 11:45:09;;;;;;;1.67;1.57;;;8.80;99.90;;;;;;5014567;28;20439;-60
2021/11/17 11:47:51;;;;;;;1.40;1.30;;;8.80;99.90;;;;;;5014527;28;20539;-58
2021/11/17 11:50:32;;;;;;;1.63;1.40;;;8.90;99.90;;;;;;5013247;28;20528;-59
2021/11/17 11:53:46;;;;;;;1.63;1.53;;;8.60;99.90;;;;;;5014361;28;20420;-57
2021/11/17 11:56:21;;;;;;;1.73;1.60;;;8.60;99.90;;;;;;5014116;28;20457;-59
2021/11/17 11:58:47;;;;;;;1.57;1.37;;;8.80;99.90;;;;;;5007082;28;20932;-59
2021/11/17 12:01:23;;;;;;;4.80;2.10;;;8.60;99.90;;;;;;4994858;28;20423;-59
2021/11/17 12:04:06;;;;;;;1.67;1.57;;;8.40;99.90;;;;;;4994665;28;20449;-58
2021/11/17 12:07:06;;;;;;;1.83;1.17;;;8.40;99.90;;;;;;4994763;28;20457;-56
2021/11/17 12:09:37;;;;;;;1.97;1.77;;;8.60;99.90;;;;;;4995020;28;20467;-61
2021/11/17 12:12:16;;;;;;;1.30;1.20;;;8.60;99.90;;;;;;5023115;22;20494;-58
2021/11/17 12:14:51;;;;;;;1.77;1.57;;;8.30;99.90;;;;;;5014258;28;20392;-55
2021/11/17 12:17:26;;;;;;;1.80;1.50;;;8.30;99.90;;;;;;5014151;28;20396;-54
2021/11/17 12:19:55;;;;;;;1.57;1.47;;;8.30;99.90;;;;;;5013844;28;20463;-54
2021/11/17 12:22:42;;;;;;;2.30;1.63;;;8.50;99.90;;;;;;5013599;28;20440;-54
2021/11/17 12:25:27;;;;;;;2.07;1.43;;;8.50;99.90;;;;;;5014062;28;20411;-54
2021/11/17 12:28:05;;;;;;;1.80;1.70;;;8.40;99.90;;;;;;4996207;28;21019;-55
2021/11/17 12:30:48;;;;;;;2.43;2.23;;;8.30;99.90;;;;;;5014423;28;20488;-53
2021/11/17 12:33:21;;;;;;;2.77;2.40;;;8.30;99.90;;;;;;5014465;28;20383;-56
2021/11/17 12:36:08;;;;;;;2.27;2.07;;;8.40;99.90;;;;;;5014163;28;20442;-54
2021/11/17 12:38:35;;;;;;;3.13;2.00;;;8.40;99.90;;;;;;5015160;28;20413;-55
2021/11/17 12:41:21;;;;;;;2.17;1.97;;;8.30;99.90;;;;;;5015191;28;20465;-56
2021/11/17 12:44:01;;;;;;;6.73;2.17;;;8.50;99.90;;;;;;4997332;28;20510;-58
2021/11/17 12:46:35;;;;;;;1.73;1.63;;;8.50;99.90;;;;;;5014169;28;20437;-56
2021/11/17 12:49:41;;;;;;;2.70;1.57;;;8.50;99.90;;;;;;5013498;28;20398;-56
2021/11/17 12:52:15;;;;;;;2.23;1.87;;;8.50;99.90;;;;;;4972391;28;20953;-57
2021/11/17 12:54:40;;;;;;;1.50;1.40;;;8.40;99.90;;;;;;4972901;28;20427;-58
2021/11/17 12:57:18;;;;;;;2.23;1.40;;;8.40;99.90;;;;;;4994424;28;20472;-57
2021/11/17 13:00:12;;;;;;;2.07;1.87;;;8.30;99.90;;;;;;5013311;28;20170;-55
2021/11/17 13:02:48;;;;;;;1.67;1.53;;;8.00;99.90;;;;;;5011700;28;20503;-57
2021/11/17 13:05:38;;;;;;;2.70;1.90;;;8.20;99.90;;;;;;5013731;28;20500;-57
2021/11/17 13:08:03;;;;;;;1.37;1.27;;;8.30;99.90;;;;;;5012168;28;20441;-59
2021/11/17 13:10:35;;;;;;;2.53;2.03;;;8.20;99.90;;;;;;5012696;28;20754;-59
2021/11/17 13:13:02;;;;;;;3.60;2.43;;;8.30;99.90;;;;;;5013564;28;20615;-55
2021/11/17 13:15:37;;;;;;;3.40;2.30;;;8.20;99.90;;;;;;5013052;28;20402;-57
2021/11/17 13:18:06;;;;;;;2.90;1.90;;;8.30;99.90;;;;;;5013186;28;20419;-54
2021/11/17 13:20:43;;;;;;;1.73;1.53;;;8.30;99.90;;;;;;5013416;28;20820;-54
2021/11/17 13:23:11;;;;;;;2.60;2.13;;;8.30;99.90;;;;;;5013173;28;20765;-55
2021/11/17 13:25:51;;;;;;;1.90;1.70;;;8.30;99.90;;;;;;5013321;28;20726;-56
2021/11/17 13:28:36;;;;;;;2.00;1.67;;;8.20;99.90;;;;;;5013031;28;20393;-55
2021/11/17 13:31:23;;;;;;;1.97;1.77;;;8.10;99.90;;;;;;4995400;28;20433;-56
2021/11/17 13:33:55;;;;;;;1.47;1.30;;;8.20;99.90;;;;;;5012921;28;20493;-55
2021/11/17 13:36:34;;;;;;;2.87;2.23;;;8.40;99.90;;;;;;5013330;28;20452;-58
2021/11/17 13:39:01;;;;;;;2.63;2.20;;;8.50;99.90;;;;;;5013499;28;20424;-56
2021/11/17 13:41:27;;;;;;;1.67;1.57;;;8.50;99.90;;;;;;4995288;28;20459;-55
2021/11/17 13:43:52;;;;;;;1.70;1.57;;;8.50;99.90;;;;;;5013424;28;20393;-55
2021/11/17 13:46:20;;;;;;;3.33;2.23;;;8.40;99.90;;;;;;5013157;28;20716;-57
2021/11/17 13:48:49;;;;;;;2.17;1.23;;;8.30;99.90;;;;;;5012826;28;20658;-58
2021/11/17 13:51:18;;;;;;;3.60;1.90;;;8.40;99.90;;;;;;5012578;28;20426;-57
2021/11/17 13:53:45;;;;;;;1.90;1.67;;;8.50;99.90;;;;;;5012632;28;20409;-54
2021/11/17 13:56:26;;;;;;;2.00;1.70;;;8.40;99.90;;;;;;5013104;28;20414;-54
2021/11/17 13:58:54;;;;;;;1.80;1.70;;;8.50;99.90;;;;;;5009634;28;20940;-58
2021/11/17 14:01:20;;;;;;;2.90;2.20;;;8.50;99.90;;;;;;5016228;28;20427;-56
2021/11/17 14:03:46;;;;;;;2.63;1.73;;;8.60;99.90;;;;;;5013351;28;20422;-58
2021/11/17 14:06:16;;;;;;;2.90;1.90;;;8.70;99.90;;;;;;5015815;28;20463;-56
2021/11/17 14:08:42;;;;;;;2.10;1.70;;;8.70;99.90;;;;;;5015822;28;20170;-55
2021/11/17 14:11:08;;;;;;;2.73;1.90;;;8.50;99.90;;;;;;5015424;28;20465;-55
2021/11/17 14:13:34;;;;;;;2.20;1.50;;;8.60;99.90;;;;;;5016394;28;20453;-58
2021/11/17 14:16:00;;;;;;;2.13;1.80;;;8.80;99.90;;;;;;5016327;28;20433;-59
2021/11/17 14:18:28;;;;;;;2.57;2.23;;;8.50;99.90;;;;;;5015862;28;20917;-58
2021/11/17 14:20:57;;;;;;;2.00;1.70;;;8.50;99.90;;;;;;5016054;28;20269;-56
2021/11/17 14:23:23;;;;;;;3.33;2.00;;;8.60;99.90;;;;;;5015385;28;20929;-54
2021/11/17 14:25:49;;;;;;;2.57;1.80;;;8.60;99.90;;;;;;5015720;28;20450;-54
2021/11/17 14:28:18;;;;;;;2.10;1.80;;;8.50;99.90;;;;;;5016030;28;20664;-56
2021/11/17 14:30:54;;;;;;;2.60;2.40;;;8.50;99.90;;;;;;5015758;28;20565;-53
2021/11/17 14:33:24;;;;;;;2.63;2.27;;;8.60;99.90;;;;;;5016231;28;20732;-56
2021/11/17 14:35:51;;;;;;;2.73;2.53;;;8.70;99.90;;;;;;5015678;28;20398;-55
2021/11/17 14:38:18;;;;;;;3.07;2.87;;;8.80;99.90;;;;;;5015460;28;20441;-58
2021/11/17 14:40:46;;;;;;;3.50;2.50;;;8.50;99.90;;;;;;5014714;28;20430;-56
2021/11/17 14:43:13;;;;;;;3.63;3.33;;;8.50;99.90;;;;;;5014855;28;20413;-59
2021/11/17 14:45:40;;;;;;;2.90;2.53;;;8.60;99.90;;;;;;5015553;28;20463;-54
2021/11/17 14:48:06;;;;;;;2.70;2.50;;;8.50;99.90;;;;;;5015510;28;20585;-53
2021/11/17 14:50:32;;;;;;;4.10;2.40;;;8.40;99.90;;;;;;5015151;28;20939;-56
2021/11/17 14:52:57;;;;;;;3.30;2.20;;;8.60;99.90;;;;;;5015423;28;20415;-53
2021/11/17 14:55:25;;;;;;;2.90;2.60;;;8.70;99.90;;;;;;5015280;28;20401;-55
2021/11/17 14:57:53;;;;;;;5.50;3.33;;;8.90;99.90;;;;;;5015105;28;20176;-57
2021/11/17 15:00:26;;;;;;;3.57;2.97;;;8.90;99.90;;;;;;5015507;28;20416;-53
2021/11/17 15:02:54;;;;;;;3.30;2.70;;;9.00;99.90;;;;;;5015101;28;20418;-54
2021/11/17 15:05:21;;;;;;;4.83;3.20;;;9.10;99.90;;;;;;5015298;28;20422;-57
2021/11/17 15:07:47;;;;;;;4.80;3.27;;;8.90;99.90;;;;;;5013920;28;20445;-55
2021/11/17 15:10:15;;;;;;;3.00;2.70;;;8.60;99.90;;;;;;5014985;28;20950;-55
2021/11/17 15:12:40;;;;;;;3.00;2.70;;;8.70;99.90;;;;;;5012698;28;20208;-55
2021/11/17 15:15:10;;;;;;;2.70;2.50;;;8.70;99.90;;;;;;5014223;28;20766;-54
2021/11/17 15:17:36;;;;;;;3.50;3.20;;;8.60;99.90;;;;;;5014518;28;20152;-56
2021/11/17 15:20:03;;;;;;;3.63;3.00;;;8.50;99.90;;;;;;5014154;28;20905;-58
2021/11/17 15:22:28;;;;;;;4.60;3.10;;;8.70;99.90;;;;;;5013665;28;20426;-57
2021/11/17 15:24:54;;;;;;;4.73;3.30;;;8.70;99.90;;;;;;4996137;28;20770;-58
2021/11/17 15:27:37;;;;;;;4.73;3.57;;;8.90;99.90;;;;;;5013703;28;20241;-56
2021/11/17 15:30:08;;;;;;;3.63;3.33;;;8.90;99.90;;;;;;5014020;28;20144;-54
2021/11/17 15:32:34;;;;;;;3.40;3.03;;;8.90;99.90;;;;;;5013563;28;20509;-57
2021/11/17 15:35:00;;;;;;;3.50;3.00;;;8.80;99.90;;;;;;5013748;28;20402;-56
2021/11/17 15:37:25;;;;;;;4.07;3.13;;;8.70;99.90;;;;;;5013578;28;20433;-56
2021/11/17 15:39:51;;;;;;;3.33;3.03;;;8.80;99.90;;;;;;5013271;28;20175;-53
2021/11/17 15:42:17;;;;;;;5.23;3.20;;;8.70;99.90;;;;;;5013220;28;20539;-56
2021/11/17 15:44:43;;;;;;;5.73;3.93;;;8.70;99.90;;;;;;5013884;28;20175;-53
2021/11/17 15:47:10;;;;;;;3.93;3.37;;;8.80;99.90;;;;;;5017782;28;20206;-59
2021/11/17 15:49:38;;;;;;;3.07;2.63;;;8.80;99.90;;;;;;5014406;28;20629;-54
2021/11/17 15:52:05;;;;;;;6.10;3.30;;;9.00;99.90;;;;;;5019809;28;20426;-54
2021/11/17 15:54:31;;;;;;;4.20;3.57;;;8.90;99.90;;;;;;5014194;28;20405;-57
2021/11/17 15:56:57;;;;;;;6.33;3.33;;;8.70;99.90;;;;;;5013357;28;20443;-59
2021/11/17 15:59:23;;;;;;;3.63;3.33;;;8.60;99.90;;;;;;5013256;28;20417;-59
2021/11/17 16:01:51;;;;;;;6.40;3.57;;;8.70;99.90;;;;;;5013314;28;20471;-58
2021/11/17 16:04:16;;;;;;;4.57;3.87;;;8.90;99.90;;;;;;5013772;28;20915;-58
2021/11/17 16:06:58;;;;;;;3.07;2.70;;;8.90;99.90;;;;;;5013124;28;20472;-56